Nenjiang, China
Current Conditions -  °F | °C
As of 1:00 AM on Friday 24 Oct 2014 (Local Time) from UHBB Reporting Station
Clear Clear  
Wind Chill: 17°   Ceiling: Unl
Heat Index: 23°   Visibility: 6mi
Dew Point: 18°   Wind: 4mph
Humidity: 80%   Direction: 250°WSW
Pressure: 29.83"   Gusts: NA
Location:  49.18°N, 125.23°E
Report Text: UHBB 231700Z 25002MPS CAVOK M05/M08 Q1010 NOSIG RMK QFE740/098736090060
Loading
Personal Weather Stations






























Interactive Weather Map
Tropical Storm Tracking
New forecast layout! Learn more

10-Day Weather Forecast

Advertisements
Track Severe Weather on mobile